createdAt,value
2022-11-19T00:00:07.196Z,50.5
2022-11-19T00:05:09.634Z,38.7
2022-11-19T00:10:07.151Z,38.1
2022-11-19T00:15:07.347Z,38.2
2022-11-19T00:20:07.141Z,34.7
2022-11-19T00:25:06.905Z,39.4
2022-11-19T00:30:07.342Z,34
2022-11-19T00:35:07.005Z,26.3
2022-11-19T00:40:06.972Z,21.7
2022-11-19T00:45:06.596Z,21.2
2022-11-19T00:50:07.464Z,15.4
2022-11-19T00:55:06.802Z,16.3
2022-11-19T01:00:06.873Z,13.5
2022-11-19T01:05:07.328Z,14.6
2022-11-19T01:10:07.086Z,12.4
2022-11-19T01:15:06.941Z,14
2022-11-19T01:20:07.353Z,10
2022-11-19T01:25:06.990Z,10.4
2022-11-19T01:30:06.908Z,11.2
2022-11-19T01:35:06.824Z,7.8
2022-11-19T01:40:07.075Z,10
2022-11-19T01:45:06.910Z,12.4
2022-11-19T01:50:06.431Z,13.1
2022-11-19T01:55:07.177Z,13.2
2022-11-19T02:00:06.544Z,10.5
2022-11-19T02:05:07.140Z,14.1
2022-11-19T02:10:07.241Z,13.9
2022-11-19T02:15:07.093Z,13.7
2022-11-19T02:20:06.513Z,20.7
2022-11-19T02:25:06.604Z,15.3
2022-11-19T02:30:07.096Z,11.3
2022-11-19T02:35:07.152Z,6.6
2022-11-19T02:40:06.293Z,24.2
2022-11-19T02:45:06.951Z,15.8
2022-11-19T02:50:07.114Z,11.3
2022-11-19T02:55:07.017Z,12.5
2022-11-19T03:00:06.913Z,13.2
2022-11-19T03:05:06.268Z,13.2
2022-11-19T03:10:06.848Z,16
2022-11-19T03:15:06.823Z,21.5
2022-11-19T03:20:07.111Z,22.2
2022-11-19T03:25:06.996Z,13.2
2022-11-19T03:30:06.897Z,19.1
2022-11-19T03:35:06.879Z,21.9
2022-11-19T03:40:06.335Z,17.8
2022-11-19T03:45:06.340Z,16.5
2022-11-19T03:50:06.998Z,15.8
2022-11-19T03:55:06.308Z,13.9
2022-11-19T04:00:06.850Z,11.2
2022-11-19T04:05:06.489Z,15.3
2022-11-19T04:10:06.512Z,14.5
2022-11-19T04:15:06.589Z,13
2022-11-19T04:20:06.653Z,10.3
2022-11-19T04:25:06.535Z,10
2022-11-19T04:30:06.599Z,9.7
2022-11-19T04:35:06.593Z,12.1
2022-11-19T04:40:06.643Z,9.4
2022-11-19T04:45:06.730Z,13.5
2022-11-19T04:50:06.893Z,8.3
2022-11-19T04:55:06.935Z,13.4
2022-11-19T05:00:07.078Z,13.5
2022-11-19T05:05:06.639Z,12.8
2022-11-19T05:10:06.688Z,10.7
2022-11-19T05:15:06.837Z,10.5
2022-11-19T05:20:06.830Z,14.6
2022-11-19T05:25:06.832Z,12.1
2022-11-19T05:30:06.930Z,12.7
2022-11-19T05:35:06.982Z,10.3
2022-11-19T05:40:07.030Z,10.2
2022-11-19T05:45:07.080Z,12.1
2022-11-19T05:50:06.268Z,8.9
2022-11-19T05:55:06.253Z,6.8
2022-11-19T06:00:06.359Z,13.1
2022-11-19T06:05:06.952Z,9.8
2022-11-19T06:10:06.714Z,11.3
2022-11-19T06:15:06.771Z,10.2
2022-11-19T06:20:06.723Z,7.1
2022-11-19T06:25:06.998Z,7.8
2022-11-19T06:30:07.074Z,7.1
2022-11-19T06:35:07.008Z,8.8
2022-11-19T06:40:07.091Z,9.1
2022-11-19T06:45:07.166Z,14.7
2022-11-19T06:50:07.222Z,20.4
2022-11-19T06:55:06.296Z,11.1
2022-11-19T07:00:06.412Z,10
2022-11-19T07:05:07.101Z,9.5
2022-11-19T07:10:07.150Z,9.4
2022-11-19T07:15:06.288Z,11.7
2022-11-19T07:20:06.398Z,22.4
2022-11-19T07:25:06.363Z,13.1
2022-11-19T07:30:06.443Z,9.9
2022-11-19T07:35:06.524Z,11.7
2022-11-19T07:40:06.508Z,10.7
2022-11-19T07:45:06.499Z,10.4
2022-11-19T07:50:06.578Z,16.5
2022-11-19T07:55:06.595Z,13
2022-11-19T08:00:06.751Z,15.2
2022-11-19T08:05:06.335Z,12.6
2022-11-19T08:10:06.415Z,20.4
2022-11-19T08:15:06.352Z,20.3
2022-11-19T08:20:06.449Z,18.3
2022-11-19T08:25:06.365Z,15
2022-11-19T08:30:06.509Z,12.7
2022-11-19T08:35:06.419Z,21.4
2022-11-19T08:40:06.486Z,13.3
2022-11-19T08:45:06.445Z,17.3
2022-11-19T08:50:06.508Z,13.8
2022-11-19T08:55:06.459Z,14.3
2022-11-19T09:00:06.562Z,16.7
2022-11-19T09:05:06.523Z,30.8
2022-11-19T09:10:06.579Z,18.5
2022-11-19T09:15:06.702Z,19.3
2022-11-19T09:20:06.758Z,37.7
2022-11-19T09:25:06.735Z,17
2022-11-19T09:30:06.787Z,14.6
2022-11-19T09:35:06.713Z,13.3
2022-11-19T09:40:06.744Z,37.8
2022-11-19T09:45:06.774Z,12.8
2022-11-19T09:50:07.260Z,11.6
2022-11-19T09:55:06.779Z,17.1
2022-11-19T10:00:06.867Z,13.6
2022-11-19T10:05:06.422Z,12.4
2022-11-19T10:10:06.510Z,12.9
2022-11-19T10:15:06.527Z,11.5
2022-11-19T10:20:06.928Z,9.2
2022-11-19T10:25:06.586Z,9.5
2022-11-19T10:30:06.865Z,13.9
2022-11-19T10:35:06.910Z,8.9
2022-11-19T10:40:07.060Z,14.7
2022-11-19T10:45:06.957Z,9.1
2022-11-19T10:50:06.909Z,9.4
2022-11-19T10:55:06.873Z,12.1
2022-11-19T11:00:07.317Z,10.9
2022-11-19T11:05:06.881Z,13.7
2022-11-19T11:10:07.110Z,7.5
2022-11-19T11:15:06.663Z,11.2
2022-11-19T11:20:06.769Z,10.1
2022-11-19T11:25:07.083Z,7.9
2022-11-19T11:30:07.019Z,14.5
2022-11-19T11:35:07.080Z,12.7
2022-11-19T11:40:06.376Z,15.8
2022-11-19T11:45:06.413Z,12.2
2022-11-19T11:50:07.120Z,9.3
2022-11-19T11:55:07.053Z,15.3
2022-11-19T12:00:07.224Z,21.5
2022-11-19T12:05:06.802Z,12.2
2022-11-19T12:10:07.188Z,27.4
2022-11-19T12:15:06.810Z,10.1
2022-11-19T12:20:07.101Z,9.9
2022-11-19T12:25:06.584Z,12.1
2022-11-19T12:30:06.242Z,19.1
2022-11-19T12:35:07.141Z,17.6
2022-11-19T12:40:06.536Z,20.8
2022-11-19T12:45:06.336Z,16.9
2022-11-19T12:50:06.638Z,17.5
2022-11-19T12:55:06.374Z,16.2
2022-11-19T13:00:06.975Z,14
2022-11-19T13:05:06.379Z,10.3
2022-11-19T13:10:06.716Z,11.6
2022-11-19T13:15:06.953Z,7.2
2022-11-19T13:20:06.630Z,10.2
2022-11-19T13:25:06.310Z,11.7
2022-11-19T13:30:06.313Z,14.3
2022-11-19T13:35:06.222Z,14.3
2022-11-19T13:40:06.697Z,14.7
2022-11-19T13:45:06.897Z,20.5
2022-11-19T13:50:06.913Z,19.7
2022-11-19T13:55:06.265Z,13.6
2022-11-19T14:00:06.477Z,18.2
2022-11-19T14:05:06.319Z,12.8
2022-11-19T14:10:06.897Z,17.5
2022-11-19T14:15:06.516Z,17.7
2022-11-19T14:20:07.117Z,18.3
2022-11-19T14:25:06.484Z,20.5
2022-11-19T14:30:07.188Z,19.6
2022-11-19T14:35:07.061Z,34.7
2022-11-19T14:40:06.782Z,37.8
2022-11-19T14:45:06.895Z,29.2
2022-11-19T14:50:07.084Z,42.8
2022-11-19T14:55:07.156Z,28.8
2022-11-19T15:00:06.361Z,37.1
2022-11-19T15:05:06.899Z,38.8
2022-11-19T15:10:07.125Z,27.3
2022-11-19T15:15:06.463Z,35.6
2022-11-19T15:20:06.678Z,35.8
2022-11-19T15:25:06.843Z,37.5
2022-11-19T15:30:06.824Z,53
2022-11-19T15:35:06.750Z,62.7
2022-11-19T15:40:07.066Z,54.1
2022-11-19T15:45:07.122Z,57.8
2022-11-19T15:50:06.898Z,60.3
2022-11-19T15:55:06.920Z,53.5
2022-11-19T16:00:07.264Z,57.4
2022-11-19T16:05:07.004Z,52.3
2022-11-19T16:10:07.163Z,30.6
2022-11-19T16:15:07.144Z,39.6
2022-11-19T16:20:07.249Z,45.6
2022-11-19T16:25:06.480Z,28.8
2022-11-19T16:30:06.634Z,45.1
2022-11-19T16:35:06.268Z,39.2
2022-11-19T16:40:06.319Z,69.6
2022-11-19T16:45:06.472Z,100
2022-11-19T16:50:06.494Z,73.6
2022-11-19T16:55:06.338Z,43.5
2022-11-19T17:00:06.780Z,42.5
2022-11-19T17:05:07.050Z,41.5
2022-11-19T17:10:07.111Z,37.4
2022-11-19T17:15:06.236Z,22.9
2022-11-19T17:20:07.008Z,60.3
2022-11-19T17:25:06.776Z,53.1
2022-11-19T17:30:06.777Z,44.7
2022-11-19T17:35:06.708Z,44.6
2022-11-19T17:40:06.644Z,47.9
2022-11-19T17:45:06.801Z,55.6
2022-11-19T17:50:07.004Z,51.7
2022-11-19T17:55:06.941Z,46.9
2022-11-19T18:00:06.980Z,52.3
2022-11-19T18:05:06.632Z,80
2022-11-19T18:10:06.310Z,65.5
2022-11-19T18:15:06.430Z,58.8
2022-11-19T18:20:06.480Z,43.1
2022-11-19T18:25:06.589Z,18.6
2022-11-19T18:30:06.670Z,39.3
2022-11-19T18:35:06.744Z,40.8
2022-11-19T18:40:06.748Z,45.3
2022-11-19T18:45:06.812Z,40.2
2022-11-19T18:50:06.907Z,73
2022-11-19T18:55:06.700Z,54.4
2022-11-19T19:00:06.838Z,60.5
2022-11-19T19:05:06.491Z,41.1
2022-11-19T19:10:06.474Z,13.8
2022-11-19T19:15:06.529Z,10.4
2022-11-19T19:20:06.611Z,9
2022-11-19T19:25:06.671Z,8.8
2022-11-19T19:30:06.668Z,10.8
2022-11-19T19:35:06.593Z,14.2
2022-11-19T19:40:06.523Z,12.9
2022-11-19T19:45:06.443Z,8.2
2022-11-19T19:50:06.592Z,13.2
2022-11-19T19:55:06.552Z,8.5
2022-11-19T20:00:06.563Z,32.9
2022-11-19T20:05:07.187Z,12.8
2022-11-19T20:10:06.340Z,16.2
2022-11-19T20:15:06.424Z,20.6
2022-11-19T20:20:06.548Z,28.2
2022-11-19T20:25:06.586Z,18.4
2022-11-19T20:30:06.540Z,26.1
2022-11-19T20:35:06.720Z,16.7
2022-11-19T20:40:06.704Z,21.9
2022-11-19T20:45:06.638Z,53.6
2022-11-19T20:50:06.778Z,36.3
2022-11-19T20:55:06.809Z,24.1
2022-11-19T21:00:06.978Z,21.8
2022-11-19T21:05:06.538Z,22.3
2022-11-19T21:10:06.723Z,21.9
2022-11-19T21:15:06.872Z,19.5
2022-11-19T21:20:06.790Z,22
2022-11-19T21:25:06.771Z,28.7
2022-11-19T21:30:06.823Z,35.1
2022-11-19T21:35:06.783Z,48.7
2022-11-19T21:40:07.097Z,52.6
2022-11-19T21:45:06.426Z,49.6
2022-11-19T21:50:06.757Z,51.1
2022-11-19T21:55:06.453Z,61.3
2022-11-19T22:00:06.609Z,71.7
2022-11-19T22:05:07.195Z,41
2022-11-19T22:10:07.196Z,46.9
2022-11-19T22:15:07.201Z,34.2
2022-11-19T22:20:07.211Z,44.4
2022-11-19T22:25:07.239Z,39.7
2022-11-19T22:30:07.244Z,52
2022-11-19T22:35:06.321Z,46.4
2022-11-19T22:40:06.544Z,47.2
2022-11-19T22:45:06.645Z,47.4
2022-11-19T22:50:06.769Z,51.5
2022-11-19T22:55:06.967Z,46.6
2022-11-19T23:00:07.013Z,48.6
2022-11-19T23:05:06.260Z,49.4
2022-11-19T23:10:06.751Z,47.8
2022-11-19T23:15:06.727Z,48.1
2022-11-19T23:20:06.998Z,54.8
2022-11-19T23:25:06.947Z,42.3
2022-11-19T23:30:06.951Z,41.1
2022-11-19T23:35:06.960Z,60.7
2022-11-19T23:40:07.039Z,44.7
2022-11-19T23:45:07.024Z,54.6
2022-11-19T23:50:07.134Z,50.5
2022-11-19T23:55:07.191Z,58.5
